createdAt,value
2019-04-07T00:01:26.207Z,66.61
2019-04-07T00:03:54.947Z,67.64
2019-04-07T00:06:24.220Z,67.80
2019-04-07T00:08:52.568Z,68.57
2019-04-07T00:11:20.861Z,68.60
2019-04-07T00:13:49.995Z,68.40
2019-04-07T00:16:18.530Z,68.59
2019-04-07T00:18:47.461Z,68.34
2019-04-07T00:21:16.831Z,68.97
2019-04-07T00:23:45.493Z,69.87
2019-04-07T00:26:14.569Z,70.37
2019-04-07T00:28:43.749Z,71.49
2019-04-07T00:31:12.228Z,70.81
2019-04-07T00:33:40.548Z,70.69
2019-04-07T00:36:09.498Z,69.67
2019-04-07T00:38:38.427Z,70.11
2019-04-07T00:41:06.891Z,69.62
2019-04-07T00:43:35.223Z,71.09
2019-04-07T00:46:03.542Z,72.07
2019-04-07T00:48:32.118Z,71.77
2019-04-07T00:51:00.436Z,72.01
2019-04-07T00:53:28.911Z,72.67
2019-04-07T00:55:57.736Z,72.72
2019-04-07T00:58:26.083Z,72.52
2019-04-07T01:00:54.338Z,73.19
2019-04-07T01:03:22.696Z,73.61
2019-04-07T01:05:51.113Z,73.16
2019-04-07T01:08:19.405Z,73.51
2019-04-07T01:10:48.074Z,73.83
2019-04-07T01:13:17.177Z,73.61
2019-04-07T01:15:46.013Z,72.16
2019-04-07T01:18:15.403Z,71.09
2019-04-07T01:20:44.002Z,70.67
2019-04-07T01:23:12.896Z,71.03
2019-04-07T01:25:42.084Z,71.01
2019-04-07T01:28:10.964Z,72.61
2019-04-07T01:30:39.301Z,73.60
2019-04-07T01:33:07.673Z,73.47
2019-04-07T01:35:45.025Z,73.85
2019-04-07T01:38:06.013Z,73.69
2019-04-07T01:40:34.237Z,73.27
2019-04-07T01:43:13.557Z,72.39
2019-04-07T01:45:43.488Z,72.23
2019-04-07T01:48:28.281Z,70.80
2019-04-07T01:50:58.225Z,71.67
2019-04-07T01:53:30.940Z,71.98
2019-04-07T01:56:03.777Z,72.39
2019-04-07T01:58:36.145Z,74.13
2019-04-07T02:01:15.735Z,73.96
2019-04-07T02:03:48.462Z,74.10
2019-04-07T02:06:18.872Z,75.91
2019-04-07T02:09:01.803Z,75.30
2019-04-07T02:11:35.047Z,74.76
2019-04-07T02:14:05.061Z,74.61
2019-04-07T02:16:50.034Z,74.66
2019-04-07T02:19:29.430Z,74.93
2019-04-07T02:22:02.319Z,75.88
2019-04-07T02:24:43.194Z,76.68
2019-04-07T02:27:28.728Z,74.90
2019-04-07T02:30:08.253Z,74.16
2019-04-07T02:32:51.082Z,73.28
2019-04-07T02:35:28.223Z,72.29
2019-04-07T02:37:58.236Z,71.22
2019-04-07T02:40:28.516Z,70.53
2019-04-07T02:42:58.850Z,71.02
2019-04-07T02:45:28.900Z,72.75
2019-04-07T02:48:05.144Z,74.14
2019-04-07T02:50:38.709Z,73.28
2019-04-07T02:53:25.256Z,73.26
2019-04-07T02:56:02.049Z,72.93
2019-04-07T02:58:32.906Z,74.59
2019-04-07T03:01:05.820Z,75.15
2019-04-07T03:03:36.840Z,73.90
2019-04-07T03:06:20.977Z,73.17
2019-04-07T03:08:44.135Z,73.16
2019-04-07T03:11:16.764Z,73.43
2019-04-07T03:13:52.434Z,73.39
2019-04-07T03:16:39.465Z,73.53
2019-04-07T03:19:13.049Z,73.14
2019-04-07T03:21:46.139Z,74.14
2019-04-07T03:24:17.457Z,72.33
2019-04-07T03:27:02.771Z,73.09
2019-04-07T03:29:38.519Z,72.54
2019-04-07T03:32:17.039Z,73.51
2019-04-07T03:34:46.887Z,73.00
2019-04-07T03:37:38.298Z,72.38
2019-04-07T03:40:04.776Z,71.65
2019-04-07T03:42:51.238Z,72.42
2019-04-07T03:45:23.643Z,73.41
2019-04-07T03:47:56.221Z,73.62
2019-04-07T03:50:26.290Z,73.68
2019-04-07T03:52:58.918Z,73.61
2019-04-07T03:55:38.514Z,72.41
2019-04-07T03:58:24.424Z,72.88
2019-04-07T04:01:11.849Z,72.82
2019-04-07T04:03:59.025Z,72.56
2019-04-07T04:06:30.079Z,73.18
2019-04-07T04:09:11.878Z,72.69
2019-04-07T04:11:59.914Z,72.00
2019-04-07T04:14:31.331Z,72.27
2019-04-07T04:17:00.111Z,71.01
2019-04-07T04:19:28.770Z,70.80
2019-04-07T04:21:58.830Z,70.83
2019-04-07T04:24:28.345Z,71.07
2019-04-07T04:26:57.435Z,71.76
2019-04-07T04:29:26.525Z,71.93
2019-04-07T04:31:55.687Z,71.23
2019-04-07T04:34:25.001Z,71.37
2019-04-07T04:36:54.485Z,70.96
2019-04-07T04:39:23.091Z,70.66
2019-04-07T04:41:52.027Z,70.53
2019-04-07T04:44:20.687Z,71.08
2019-04-07T04:46:50.002Z,70.92
2019-04-07T04:49:19.991Z,71.84
2019-04-07T04:51:49.849Z,72.58
2019-04-07T04:54:19.377Z,73.81
2019-04-07T04:56:47.716Z,75.28
2019-04-07T04:59:15.994Z,75.35
2019-04-07T05:01:45.591Z,75.67
2019-04-07T05:04:13.872Z,74.96
2019-04-07T05:06:42.335Z,74.91
2019-04-07T05:09:10.690Z,74.72
2019-04-07T05:11:38.952Z,73.60
2019-04-07T05:14:08.862Z,73.77
2019-04-07T05:16:37.281Z,73.08
2019-04-07T05:19:06.197Z,72.63
2019-04-07T05:21:34.985Z,71.89
2019-04-07T05:24:03.586Z,72.07
2019-04-07T05:26:32.522Z,72.49
2019-04-07T05:29:01.545Z,72.14
2019-04-07T05:31:30.457Z,70.35
2019-04-07T05:33:58.858Z,69.92
2019-04-07T05:36:27.728Z,69.50
2019-04-07T05:38:56.304Z,66.80
2019-04-07T05:41:25.422Z,68.32
2019-04-07T05:43:55.754Z,68.41
2019-04-07T05:46:24.074Z,66.74
2019-04-07T05:48:52.994Z,69.87
2019-04-07T05:51:22.073Z,70.99
2019-04-07T05:53:50.646Z,70.65
2019-04-07T05:56:19.744Z,69.78
2019-04-07T05:58:48.395Z,67.35
2019-04-07T06:01:21.738Z,67.09
2019-04-07T06:03:46.774Z,65.83
2019-04-07T06:06:15.000Z,66.91
2019-04-07T06:08:43.335Z,65.60
2019-04-07T06:11:11.651Z,65.00
2019-04-07T06:13:41.981Z,64.67
2019-04-07T06:16:10.434Z,65.24
2019-04-07T06:18:38.728Z,65.04
2019-04-07T06:21:07.681Z,66.42
2019-04-07T06:23:37.629Z,64.24
2019-04-07T06:26:09.277Z,65.75
2019-04-07T06:28:37.026Z,65.60
2019-04-07T06:31:06.563Z,63.76
2019-04-07T06:33:38.163Z,64.43
2019-04-07T06:36:05.621Z,64.96
2019-04-07T06:38:35.775Z,62.20
2019-04-07T06:41:04.063Z,61.42
2019-04-07T06:43:35.187Z,63.58
2019-04-07T06:46:08.217Z,62.61
2019-04-07T06:48:40.265Z,62.63
2019-04-07T06:51:10.646Z,63.24
2019-04-07T06:53:50.423Z,61.60
2019-04-07T06:56:23.208Z,60.90
2019-04-07T06:59:02.173Z,61.35
2019-04-07T07:01:43.986Z,63.31
2019-04-07T07:04:32.238Z,61.95
2019-04-07T07:07:06.312Z,61.19
2019-04-07T07:09:38.653Z,62.98
2019-04-07T07:12:31.321Z,62.49
2019-04-07T07:15:12.840Z,63.17
2019-04-07T07:17:42.838Z,62.11
2019-04-07T07:20:18.838Z,60.69
2019-04-07T07:22:55.015Z,61.17
2019-04-07T07:25:23.460Z,61.23
2019-04-07T07:27:52.306Z,59.52
2019-04-07T07:30:21.406Z,60.16
2019-04-07T07:32:49.822Z,59.75
2019-04-07T07:35:18.136Z,59.13
2019-04-07T07:37:46.658Z,61.32
2019-04-07T07:40:16.055Z,60.85
2019-04-07T07:42:45.813Z,59.04
2019-04-07T07:45:15.620Z,61.15
2019-04-07T07:47:43.915Z,58.69
2019-04-07T07:50:12.290Z,58.08
2019-04-07T07:52:40.688Z,57.20
2019-04-07T07:55:09.706Z,57.75
2019-04-07T07:57:38.203Z,57.71
2019-04-07T08:00:07.271Z,57.12
2019-04-07T08:02:36.454Z,56.85
2019-04-07T08:05:07.147Z,56.34
2019-04-07T08:07:35.915Z,56.19
2019-04-07T08:10:06.207Z,56.83
2019-04-07T08:12:35.643Z,56.68
2019-04-07T08:15:05.937Z,55.23
2019-04-07T08:17:34.299Z,55.40
2019-04-07T08:20:02.562Z,56.37
2019-04-07T08:22:36.590Z,55.02
2019-04-07T08:25:01.045Z,56.74
2019-04-07T08:27:31.199Z,54.64
2019-04-07T08:29:59.367Z,54.85
2019-04-07T08:32:30.961Z,56.20
2019-04-07T08:35:01.465Z,54.10
2019-04-07T08:37:27.716Z,52.66
2019-04-07T08:39:57.902Z,54.08
2019-04-07T08:42:26.897Z,54.61
2019-04-07T08:44:57.880Z,53.56
2019-04-07T08:47:25.833Z,54.59
2019-04-07T08:49:56.917Z,51.79
2019-04-07T08:52:24.156Z,52.63
2019-04-07T08:54:53.473Z,55.46
2019-04-07T08:57:22.574Z,52.05
2019-04-07T08:59:51.432Z,53.48
2019-04-07T09:02:20.137Z,51.88
2019-04-07T09:04:51.250Z,51.59
2019-04-07T09:07:19.409Z,52.19
2019-04-07T09:09:49.807Z,52.90
2019-04-07T09:12:18.544Z,50.83
2019-04-07T09:14:46.903Z,54.06
2019-04-07T09:17:30.981Z,50.89
2019-04-07T09:20:10.247Z,51.33
2019-04-07T09:22:39.448Z,49.90
2019-04-07T09:25:12.174Z,52.29
2019-04-07T09:27:51.110Z,50.28
2019-04-07T09:30:27.547Z,51.38
2019-04-07T09:33:03.356Z,49.87
2019-04-07T09:35:42.508Z,52.38
2019-04-07T09:38:29.408Z,51.07
2019-04-07T09:40:59.376Z,52.56
2019-04-07T09:43:45.899Z,50.38
2019-04-07T09:46:15.814Z,51.23
2019-04-07T09:48:52.749Z,49.81
2019-04-07T09:51:32.055Z,49.73
2019-04-07T09:54:05.200Z,50.76
2019-04-07T09:56:51.843Z,50.22
2019-04-07T09:59:30.841Z,50.41
2019-04-07T10:02:06.301Z,48.63
2019-04-07T10:04:42.523Z,51.43
2019-04-07T10:07:16.534Z,50.33
2019-04-07T10:10:10.809Z,48.88
2019-04-07T10:12:42.510Z,50.17
2019-04-07T10:15:12.959Z,49.11
2019-04-07T10:17:49.558Z,49.55
2019-04-07T10:20:22.106Z,48.00
2019-04-07T10:23:03.224Z,48.27
2019-04-07T10:25:33.297Z,50.68
2019-04-07T10:28:03.175Z,47.24
2019-04-07T10:30:39.889Z,48.89
2019-04-07T10:33:09.947Z,49.07
2019-04-07T10:35:40.015Z,48.80
2019-04-07T10:38:12.961Z,46.67
2019-04-07T10:40:45.415Z,47.79
2019-04-07T10:43:15.357Z,45.13
2019-04-07T10:45:53.900Z,45.92
2019-04-07T10:48:35.376Z,46.19
2019-04-07T10:51:07.997Z,48.13
2019-04-07T10:53:54.174Z,46.73
2019-04-07T10:56:27.681Z,48.93
2019-04-07T10:58:58.235Z,47.30
2019-04-07T11:01:31.123Z,44.06
2019-04-07T11:04:03.981Z,44.06
2019-04-07T11:06:36.418Z,45.84
2019-04-07T11:09:11.543Z,48.06
2019-04-07T11:11:49.080Z,46.76
2019-04-07T11:14:25.050Z,44.76
2019-04-07T11:17:01.113Z,43.79
2019-04-07T11:19:31.073Z,45.08
2019-04-07T11:22:07.861Z,45.08
2019-04-07T11:24:54.131Z,47.07
2019-04-07T11:27:33.378Z,46.00
2019-04-07T11:30:07.111Z,45.46
2019-04-07T11:32:37.121Z,45.41
2019-04-07T11:35:08.109Z,47.84
2019-04-07T11:37:50.258Z,44.19
2019-04-07T11:40:22.866Z,44.19
2019-04-07T11:42:53.432Z,47.30
2019-04-07T11:45:32.309Z,47.63
2019-04-07T11:48:02.210Z,48.10
2019-04-07T11:50:32.710Z,44.70
2019-04-07T11:53:02.610Z,43.44
2019-04-07T11:55:33.402Z,43.44
2019-04-07T11:58:13.491Z,45.19
2019-04-07T12:00:51.405Z,44.92
2019-04-07T12:03:26.060Z,45.91
2019-04-07T12:05:59.795Z,45.91
2019-04-07T12:08:36.166Z,44.92
2019-04-07T12:11:07.598Z,42.15
2019-04-07T12:13:54.308Z,43.76
2019-04-07T12:16:26.646Z,41.51
2019-04-07T12:19:03.353Z,42.30
2019-04-07T12:21:42.759Z,42.30
2019-04-07T12:24:30.644Z,40.80
2019-04-07T12:27:12.364Z,40.93
2019-04-07T12:29:44.555Z,44.26
2019-04-07T12:32:18.135Z,42.31
2019-04-07T12:35:07.394Z,39.65
2019-04-07T12:37:47.722Z,39.65
2019-04-07T12:40:34.327Z,40.93
2019-04-07T12:43:13.204Z,40.35
2019-04-07T12:45:58.109Z,42.78
2019-04-07T12:48:36.794Z,40.29
2019-04-07T12:51:07.370Z,39.95
2019-04-07T12:53:46.364Z,41.44
2019-04-07T12:56:34.104Z,38.89
2019-04-07T12:59:09.022Z,38.89
2019-04-07T13:01:51.037Z,39.87
2019-04-07T13:04:37.872Z,39.73
2019-04-07T13:07:17.115Z,37.89
2019-04-07T13:09:55.099Z,38.73
2019-04-07T13:12:30.744Z,38.63
2019-04-07T13:15:11.948Z,38.49
2019-04-07T13:17:42.175Z,38.28
2019-04-07T13:20:19.712Z,38.04
2019-04-07T13:22:55.268Z,38.44
2019-04-07T13:25:29.276Z,37.57
2019-04-07T13:28:16.313Z,38.18
2019-04-07T13:30:50.047Z,37.12
2019-04-07T13:33:20.572Z,38.44
2019-04-07T13:36:07.227Z,38.24
2019-04-07T13:38:50.149Z,36.89
2019-04-07T13:41:37.984Z,36.66
2019-04-07T13:44:13.403Z,38.39
2019-04-07T13:46:45.844Z,34.78
2019-04-07T13:49:25.158Z,36.47
2019-04-07T13:51:53.315Z,36.59
2019-04-07T13:54:23.216Z,36.30
2019-04-07T13:56:56.978Z,38.10
2019-04-07T13:59:44.872Z,37.23
2019-04-07T14:02:27.843Z,36.11
2019-04-07T14:04:59.902Z,35.92
2019-04-07T14:07:30.627Z,35.14
2019-04-07T14:10:03.623Z,36.28
2019-04-07T14:12:33.736Z,35.57
2019-04-07T14:15:21.543Z,37.34
2019-04-07T14:17:54.754Z,34.70
2019-04-07T14:20:40.462Z,36.29
2019-04-07T14:23:19.817Z,36.89
2019-04-07T14:25:52.678Z,35.71
2019-04-07T14:28:22.162Z,39.27
2019-04-07T14:31:09.334Z,35.15
2019-04-07T14:33:51.113Z,37.65
2019-04-07T14:36:23.484Z,36.33
2019-04-07T14:38:57.552Z,36.97
2019-04-07T14:41:44.410Z,38.95
2019-04-07T14:44:15.166Z,36.95
2019-04-07T14:46:54.178Z,39.35
2019-04-07T14:49:39.682Z,40.01
2019-04-07T14:52:13.376Z,36.97
2019-04-07T14:55:01.298Z,39.17
2019-04-07T14:57:40.647Z,38.95
2019-04-07T15:00:15.366Z,37.54
2019-04-07T15:02:44.434Z,36.17
2019-04-07T15:05:18.555Z,36.44
2019-04-07T15:07:48.458Z,36.99
2019-04-07T15:10:20.182Z,36.30
2019-04-07T15:13:02.002Z,36.68
2019-04-07T15:15:30.403Z,37.02
2019-04-07T15:17:59.791Z,39.25
2019-04-07T15:20:28.228Z,38.26
2019-04-07T15:22:59.294Z,37.55
2019-04-07T15:25:27.764Z,37.55
2019-04-07T15:27:58.913Z,38.42
2019-04-07T15:30:26.812Z,39.32
2019-04-07T15:32:57.802Z,39.14
2019-04-07T15:35:25.083Z,38.59
2019-04-07T15:37:53.779Z,40.77
2019-04-07T15:40:22.096Z,40.37
2019-04-07T15:42:51.166Z,39.89
2019-04-07T15:45:20.460Z,40.73
2019-04-07T15:47:51.342Z,42.24
2019-04-07T15:50:18.964Z,42.80
2019-04-07T15:52:47.394Z,41.66
2019-04-07T15:55:15.582Z,42.82
2019-04-07T15:57:44.098Z,42.89
2019-04-07T16:00:12.477Z,42.87
2019-04-07T16:02:43.062Z,43.67
2019-04-07T16:05:11.716Z,43.58
2019-04-07T16:07:41.641Z,43.10
2019-04-07T16:10:10.265Z,42.58
2019-04-07T16:12:47.342Z,44.35
2019-04-07T16:15:08.591Z,45.36
2019-04-07T16:17:37.287Z,44.54
2019-04-07T16:20:19.912Z,44.36
2019-04-07T16:22:44.205Z,44.76
2019-04-07T16:25:11.216Z,45.06
2019-04-07T16:27:39.813Z,45.65
2019-04-07T16:30:11.136Z,45.03
2019-04-07T16:32:39.438Z,45.34
2019-04-07T16:35:12.907Z,46.05
2019-04-07T16:37:40.174Z,47.00
2019-04-07T16:40:10.526Z,45.99
2019-04-07T16:42:39.246Z,46.17
2019-04-07T16:45:11.422Z,46.88
2019-04-07T16:47:38.248Z,45.95
2019-04-07T16:50:07.605Z,45.91
2019-04-07T16:52:36.474Z,46.00
2019-04-07T16:55:07.953Z,45.75
2019-04-07T16:57:36.171Z,46.32
2019-04-07T17:00:08.119Z,45.39
2019-04-07T17:02:36.362Z,46.35
2019-04-07T17:05:05.785Z,44.86
2019-04-07T17:07:34.953Z,46.76
2019-04-07T17:10:03.801Z,46.96
2019-04-07T17:12:32.425Z,46.65
2019-04-07T17:15:04.597Z,46.34
2019-04-07T17:17:31.438Z,47.16
2019-04-07T17:20:00.453Z,48.19
2019-04-07T17:22:28.942Z,48.64
2019-04-07T17:25:00.323Z,47.79
2019-04-07T17:27:27.179Z,47.48
2019-04-07T17:29:56.606Z,47.46
2019-04-07T17:32:25.738Z,48.50
2019-04-07T17:34:54.137Z,49.04
2019-04-07T17:37:25.893Z,48.87
2019-04-07T17:40:08.678Z,48.62
2019-04-07T17:42:35.934Z,48.99
2019-04-07T17:45:07.770Z,49.11
2019-04-07T17:47:38.183Z,48.74
2019-04-07T17:50:26.037Z,48.67
2019-04-07T17:52:58.114Z,49.72
2019-04-07T17:55:44.507Z,49.71
2019-04-07T17:58:16.123Z,50.23
2019-04-07T18:00:53.295Z,50.66
2019-04-07T18:03:23.674Z,50.01
2019-04-07T18:06:10.043Z,50.29
2019-04-07T18:08:45.308Z,50.60
2019-04-07T18:11:31.812Z,51.40
2019-04-07T18:14:16.991Z,50.82
2019-04-07T18:16:59.240Z,51.66
2019-04-07T18:19:36.162Z,52.36
2019-04-07T18:22:22.041Z,52.43
2019-04-07T18:25:02.137Z,52.97
2019-04-07T18:27:34.135Z,54.75
2019-04-07T18:30:05.522Z,54.95
2019-04-07T18:32:43.029Z,55.63
2019-04-07T18:35:14.121Z,57.71
2019-04-07T18:37:47.038Z,56.70
2019-04-07T18:40:33.711Z,57.15
2019-04-07T18:43:14.863Z,56.62
2019-04-07T18:45:48.044Z,58.67
2019-04-07T18:48:28.566Z,57.51
2019-04-07T18:51:11.389Z,58.09
2019-04-07T18:54:00.353Z,58.66
2019-04-07T18:56:40.468Z,60.42
2019-04-07T18:59:17.478Z,60.72
2019-04-07T19:02:11.844Z,60.01
2019-04-07T19:04:39.052Z,61.63
2019-04-07T19:07:25.642Z,61.52
2019-04-07T19:10:08.027Z,60.63
2019-04-07T19:12:33.228Z,60.61
2019-04-07T19:15:20.960Z,59.78
2019-04-07T19:17:54.632Z,60.58
2019-04-07T19:20:28.680Z,61.08
2019-04-07T19:22:58.577Z,62.79
2019-04-07T19:25:45.695Z,61.12
2019-04-07T19:28:35.787Z,62.14
2019-04-07T19:31:04.441Z,62.33
2019-04-07T19:33:37.694Z,62.33
2019-04-07T19:36:12.168Z,62.26
2019-04-07T19:38:47.480Z,63.45
2019-04-07T19:41:33.931Z,61.84
2019-04-07T19:44:08.023Z,62.21
2019-04-07T19:46:43.456Z,61.92
2019-04-07T19:49:25.516Z,62.27
2019-04-07T19:51:59.455Z,62.23
2019-04-07T19:54:34.347Z,63.96
2019-04-07T19:57:09.723Z,62.11
2019-04-07T19:59:43.041Z,62.00
2019-04-07T20:02:34.908Z,62.23
2019-04-07T20:05:04.210Z,62.76
2019-04-07T20:07:37.405Z,64.28
2019-04-07T20:10:08.837Z,64.52
2019-04-07T20:12:57.211Z,65.68
2019-04-07T20:15:43.121Z,66.94
2019-04-07T20:18:27.820Z,67.54
2019-04-07T20:21:15.911Z,68.20
2019-04-07T20:24:03.630Z,67.89
2019-04-07T20:26:38.255Z,67.33
2019-04-07T20:29:24.551Z,65.52
2019-04-07T20:32:01.192Z,64.72
2019-04-07T20:34:48.319Z,64.88
2019-04-07T20:37:23.714Z,63.69
2019-04-07T20:39:56.853Z,64.95
2019-04-07T20:42:29.443Z,65.65
2019-04-07T20:45:13.396Z,65.41
2019-04-07T20:47:40.699Z,64.25
2019-04-07T20:50:22.435Z,64.75
2019-04-07T20:53:15.460Z,63.51
2019-04-07T20:55:52.875Z,64.52
2019-04-07T20:58:28.005Z,62.81
2019-04-07T21:01:12.974Z,62.91
2019-04-07T21:03:51.623Z,63.22
2019-04-07T21:06:25.323Z,63.31
2019-04-07T21:09:03.629Z,63.24
2019-04-07T21:11:36.445Z,61.88
2019-04-07T21:14:05.726Z,62.80
2019-04-07T21:16:57.917Z,62.23
2019-04-07T21:19:29.217Z,63.35
2019-04-07T21:22:05.453Z,64.94
2019-04-07T21:24:44.261Z,65.71
2019-04-07T21:27:14.383Z,65.72
2019-04-07T21:29:59.230Z,65.39
2019-04-07T21:32:31.154Z,64.39
2019-04-07T21:35:04.435Z,63.25
2019-04-07T21:37:40.860Z,63.11
2019-04-07T21:40:19.805Z,64.44
2019-04-07T21:42:52.042Z,64.94
2019-04-07T21:45:31.620Z,66.18
2019-04-07T21:48:03.283Z,66.70
2019-04-07T21:50:33.383Z,67.88
2019-04-07T21:53:22.921Z,66.58
2019-04-07T21:55:53.722Z,66.16
2019-04-07T21:58:32.513Z,65.95
2019-04-07T22:01:07.221Z,66.04
2019-04-07T22:03:54.755Z,64.83
2019-04-07T22:06:39.717Z,65.34
2019-04-07T22:09:10.122Z,63.90
2019-04-07T22:11:37.986Z,64.05
2019-04-07T22:14:07.678Z,64.42
2019-04-07T22:16:36.369Z,64.49
2019-04-07T22:19:10.260Z,64.36
2019-04-07T22:21:34.643Z,64.33
2019-04-07T22:24:03.091Z,64.26
2019-04-07T22:26:31.736Z,64.13
2019-04-07T22:29:02.859Z,63.85
2019-04-07T22:31:31.893Z,65.08
2019-04-07T22:34:04.267Z,65.42
2019-04-07T22:36:32.122Z,63.85
2019-04-07T22:39:02.385Z,64.52
2019-04-07T22:41:31.630Z,63.73
2019-04-07T22:44:00.150Z,65.38
2019-04-07T22:46:29.063Z,65.52
2019-04-07T22:48:58.722Z,65.94
2019-04-07T22:51:27.248Z,65.68
2019-04-07T22:53:57.657Z,66.98
2019-04-07T22:56:25.675Z,65.35
2019-04-07T22:58:54.729Z,64.31
2019-04-07T23:01:23.110Z,63.21
2019-04-07T23:03:51.795Z,63.68
2019-04-07T23:06:21.051Z,63.72
2019-04-07T23:08:49.620Z,63.17
2019-04-07T23:11:18.043Z,63.47
2019-04-07T23:13:47.240Z,63.68
2019-04-07T23:16:17.458Z,63.38
2019-04-07T23:18:46.493Z,62.76
2019-04-07T23:21:15.572Z,63.14
2019-04-07T23:23:43.854Z,64.17
2019-04-07T23:26:12.114Z,63.52
2019-04-07T23:28:40.399Z,62.32
2019-04-07T23:31:09.595Z,64.90
2019-04-07T23:33:38.586Z,65.04
2019-04-07T23:36:06.843Z,65.01
2019-04-07T23:38:35.283Z,64.47
2019-04-07T23:41:03.773Z,64.73
2019-04-07T23:43:32.276Z,65.37
2019-04-07T23:46:00.729Z,65.50
2019-04-07T23:48:29.006Z,64.92
2019-04-07T23:50:58.184Z,66.60
2019-04-07T23:54:03.242Z,64.98
2019-04-07T23:56:31.562Z,65.68
2019-04-07T23:59:00.519Z,62.25
